Time;durP1;ratioP1;P1;durP2;ratioP2;P2;SDS_P1;SDS_P2;PMS_P1;PMS_P2;Temp;Humidity;BMP_temperature;BMP_pressure;BME280_temperature;BME280_humidity;BME280_pressure;Samples;Min_cycle;Max_cycle;Signal;HPM_P1;HPM_P2
2021/11/23 00:00:50;;;;;;;8.97;5.33;;;3.30;99.90;;;;;;4985370;28;20453;-60
2021/11/23 00:03:17;;;;;;;6.03;5.33;;;3.30;99.90;;;;;;4989170;28;20459;-60
2021/11/23 00:05:45;;;;;;;12.90;6.33;;;3.30;99.90;;;;;;4980470;28;20738;-60
2021/11/23 00:08:11;;;;;;;7.17;5.47;;;3.30;99.90;;;;;;4988332;28;20432;-58
2021/11/23 00:10:40;;;;;;;8.73;5.20;;;3.20;99.90;;;;;;4984833;28;21125;-60
2021/11/23 00:13:06;;;;;;;5.90;4.83;;;3.30;99.90;;;;;;4987400;28;20429;-60
2021/11/23 00:15:34;;;;;;;6.43;5.57;;;3.20;99.90;;;;;;4989466;28;20432;-58
2021/11/23 00:18:04;;;;;;;7.13;4.97;;;3.20;99.90;;;;;;4989990;28;20514;-61
2021/11/23 00:20:30;;;;;;;6.70;5.37;;;3.20;99.90;;;;;;4981795;28;20446;-60
2021/11/23 00:22:56;;;;;;;5.90;4.73;;;3.20;99.90;;;;;;4988825;28;20434;-60
2021/11/23 00:25:23;;;;;;;6.30;5.17;;;3.20;99.90;;;;;;4987987;28;20663;-62
2021/11/23 00:27:48;;;;;;;7.60;5.80;;;3.20;99.90;;;;;;4996041;28;20832;-61
2021/11/23 00:30:14;;;;;;;7.00;5.40;;;3.20;99.90;;;;;;4985194;28;20431;-59
2021/11/23 00:32:40;;;;;;;6.83;5.30;;;3.20;99.90;;;;;;4989871;28;20177;-61
2021/11/23 00:35:06;;;;;;;6.50;5.53;;;3.20;99.90;;;;;;4989349;28;20205;-60
2021/11/23 00:37:31;;;;;;;8.57;6.27;;;3.20;99.90;;;;;;4979887;28;20185;-59
2021/11/23 00:39:58;;;;;;;7.07;5.53;;;3.20;99.90;;;;;;4983319;28;20430;-61
2021/11/23 00:42:24;;;;;;;6.20;4.83;;;3.20;99.90;;;;;;4989793;28;20196;-61
2021/11/23 00:44:51;;;;;;;7.27;5.40;;;3.10;99.90;;;;;;4980817;28;20465;-61
2021/11/23 00:47:16;;;;;;;5.00;4.50;;;3.10;99.90;;;;;;4986534;28;21033;-59
2021/11/23 00:49:43;;;;;;;8.33;4.90;;;3.10;99.90;;;;;;4994395;28;20438;-61
2021/11/23 00:52:09;;;;;;;7.97;4.97;;;3.10;99.90;;;;;;4999603;28;20272;-60
2021/11/23 00:54:35;;;;;;;6.90;4.90;;;3.10;99.90;;;;;;4989040;28;20439;-61
2021/11/23 00:57:01;;;;;;;5.90;4.80;;;3.10;99.90;;;;;;4992919;28;20438;-60
2021/11/23 00:59:27;;;;;;;6.23;4.80;;;3.00;99.90;;;;;;4997796;28;20987;-60
2021/11/23 01:01:52;;;;;;;6.27;4.50;;;3.00;99.90;;;;;;4992283;28;20675;-61
2021/11/23 01:04:18;;;;;;;7.17;4.63;;;2.90;99.90;;;;;;4982923;28;20186;-60
2021/11/23 01:06:45;;;;;;;6.23;4.77;;;2.90;99.90;;;;;;4983966;28;20315;-60
2021/11/23 01:09:12;;;;;;;6.17;4.67;;;2.90;99.90;;;;;;4991980;28;20173;-61
2021/11/23 01:11:38;;;;;;;6.40;4.90;;;2.90;99.90;;;;;;5001021;28;20530;-60
2021/11/23 01:14:07;;;;;;;6.67;4.13;;;2.90;99.90;;;;;;4980361;28;20756;-60
2021/11/23 01:16:34;;;;;;;10.00;4.60;;;2.90;99.90;;;;;;5001603;28;20444;-60
2021/11/23 01:18:59;;;;;;;5.60;4.47;;;2.80;99.90;;;;;;4993165;28;20424;-60
2021/11/23 01:21:25;;;;;;;7.97;4.90;;;2.80;99.90;;;;;;4988160;28;20465;-60
2021/11/23 01:23:52;;;;;;;5.70;5.10;;;2.80;99.90;;;;;;4988589;28;20189;-60
2021/11/23 01:26:17;;;;;;;6.70;4.87;;;2.80;99.90;;;;;;4999605;28;20213;-60
2021/11/23 01:28:43;;;;;;;5.80;4.53;;;2.80;99.90;;;;;;4991997;28;20413;-60
2021/11/23 01:31:09;;;;;;;5.03;4.53;;;2.70;99.90;;;;;;4994010;28;20191;-60
2021/11/23 01:33:35;;;;;;;4.87;4.00;;;2.70;99.90;;;;;;4999183;28;20993;-60
2021/11/23 01:36:01;;;;;;;7.27;5.23;;;2.70;99.90;;;;;;4996479;28;20264;-60
2021/11/23 01:38:27;;;;;;;6.10;4.90;;;2.70;99.90;;;;;;4991070;28;20239;-61
2021/11/23 01:40:53;;;;;;;6.07;5.10;;;2.60;99.90;;;;;;4992307;28;21005;-60
2021/11/23 01:43:18;;;;;;;6.37;5.20;;;2.60;99.90;;;;;;4991419;28;20188;-60
2021/11/23 01:45:44;;;;;;;5.93;4.53;;;2.60;99.90;;;;;;4989915;28;20420;-61
2021/11/23 01:48:10;;;;;;;5.77;4.80;;;2.60;99.90;;;;;;4987497;28;20641;-60
2021/11/23 01:50:36;;;;;;;5.80;4.70;;;2.60;99.90;;;;;;4990671;28;20320;-61
2021/11/23 01:53:04;;;;;;;6.87;5.20;;;2.60;99.90;;;;;;4987483;28;20621;-61
2021/11/23 01:55:33;;;;;;;5.90;4.57;;;2.60;99.90;;;;;;4977103;28;20790;-61
2021/11/23 01:57:59;;;;;;;7.10;5.47;;;2.60;99.90;;;;;;4985491;28;20522;-61
2021/11/23 02:00:25;;;;;;;5.50;5.00;;;2.50;99.90;;;;;;4988812;28;22233;-60
2021/11/23 02:02:50;;;;;;;5.97;5.23;;;2.50;99.90;;;;;;4982851;28;20456;-61
2021/11/23 02:05:16;;;;;;;5.70;4.77;;;2.50;99.90;;;;;;4984401;28;20180;-62
2021/11/23 02:07:42;;;;;;;5.70;4.70;;;2.50;99.90;;;;;;4987054;28;20272;-58
2021/11/23 02:10:09;;;;;;;6.70;4.80;;;2.50;99.90;;;;;;4989785;28;20191;-60
2021/11/23 02:12:36;;;;;;;11.30;5.07;;;2.40;99.90;;;;;;4983948;28;20213;-60
2021/11/23 02:15:05;;;;;;;5.93;4.93;;;2.50;99.90;;;;;;4985838;28;20495;-61
2021/11/23 02:17:31;;;;;;;5.43;4.80;;;2.50;99.90;;;;;;4975926;28;20473;-61
2021/11/23 02:19:57;;;;;;;6.10;5.10;;;2.50;99.90;;;;;;4988235;28;20464;-61
2021/11/23 02:22:23;;;;;;;6.33;5.00;;;2.50;99.90;;;;;;4989900;28;20197;-61
2021/11/23 02:24:49;;;;;;;7.30;5.33;;;2.50;99.90;;;;;;4991327;28;20499;-61
2021/11/23 02:27:15;;;;;;;7.60;5.67;;;2.50;99.90;;;;;;4990642;28;21021;-60
2021/11/23 02:29:41;;;;;;;7.57;5.93;;;2.50;99.90;;;;;;4983249;28;20873;-60
2021/11/23 02:32:07;;;;;;;7.30;5.87;;;2.50;99.90;;;;;;4986497;28;20625;-60
2021/11/23 02:34:33;;;;;;;7.83;5.87;;;2.50;99.90;;;;;;4988920;28;20428;-61
2021/11/23 02:36:59;;;;;;;7.27;5.93;;;2.50;99.90;;;;;;4990036;28;20415;-59
2021/11/23 02:39:25;;;;;;;6.83;5.47;;;2.50;99.90;;;;;;4988349;28;20432;-60
2021/11/23 02:41:51;;;;;;;7.00;5.83;;;2.50;99.90;;;;;;4988945;28;21129;-59
2021/11/23 02:44:17;;;;;;;6.90;5.20;;;2.50;99.90;;;;;;4987636;28;20439;-60
2021/11/23 02:46:43;;;;;;;10.30;5.87;;;2.50;99.90;;;;;;4987499;28;20470;-60
2021/11/23 02:49:09;;;;;;;9.00;5.73;;;2.50;99.90;;;;;;4984235;28;20170;-59
2021/11/23 02:51:37;;;;;;;8.60;5.50;;;2.50;99.90;;;;;;4990481;28;20476;-60
2021/11/23 02:54:02;;;;;;;8.00;5.20;;;2.60;99.90;;;;;;4987900;28;20175;-60
2021/11/23 02:56:28;;;;;;;7.00;5.43;;;2.60;99.90;;;;;;4988513;28;20482;-62
2021/11/23 02:58:54;;;;;;;9.00;5.80;;;2.60;99.90;;;;;;4989622;28;20184;-62
2021/11/23 03:01:23;;;;;;;8.60;6.00;;;2.60;99.90;;;;;;4989955;28;20444;-61
2021/11/23 03:03:49;;;;;;;7.70;5.40;;;2.60;99.90;;;;;;4984980;28;20952;-58
2021/11/23 03:06:17;;;;;;;7.70;6.13;;;2.50;99.90;;;;;;4986893;28;20491;-60
2021/11/23 03:08:45;;;;;;;10.83;6.70;;;2.50;99.90;;;;;;4988866;28;20497;-62
2021/11/23 03:11:11;;;;;;;8.90;6.10;;;2.50;99.90;;;;;;4985134;28;20463;-61
2021/11/23 03:13:37;;;;;;;6.43;5.57;;;2.50;99.90;;;;;;4989112;28;20475;-60
2021/11/23 03:16:04;;;;;;;9.30;5.80;;;2.50;99.90;;;;;;4989055;28;20578;-60
2021/11/23 03:18:30;;;;;;;9.53;6.73;;;2.50;99.90;;;;;;4987979;28;20178;-61
2021/11/23 03:20:56;;;;;;;8.87;5.80;;;2.50;99.90;;;;;;4985321;28;20579;-61
2021/11/23 03:23:22;;;;;;;9.50;6.23;;;2.60;99.90;;;;;;4988659;28;20808;-61
2021/11/23 03:25:48;;;;;;;8.80;6.37;;;2.60;99.90;;;;;;4982715;28;21052;-61
2021/11/23 03:28:14;;;;;;;11.30;6.80;;;2.60;99.90;;;;;;4981306;28;20505;-61
2021/11/23 03:30:40;;;;;;;8.47;6.00;;;2.60;99.90;;;;;;4983324;28;20192;-61
2021/11/23 03:33:07;;;;;;;8.40;6.57;;;2.50;99.90;;;;;;4980883;28;20181;-62
2021/11/23 03:35:36;;;;;;;11.20;7.83;;;2.60;99.90;;;;;;4980894;28;21164;-61
2021/11/23 03:38:03;;;;;;;11.73;7.20;;;2.60;99.90;;;;;;4980874;28;20431;-62
2021/11/23 03:40:30;;;;;;;11.00;6.37;;;2.60;99.90;;;;;;4981527;28;20430;-61
2021/11/23 03:42:56;;;;;;;8.53;6.63;;;2.60;99.90;;;;;;4981875;28;20498;-62
2021/11/23 03:45:23;;;;;;;10.30;6.90;;;2.60;99.90;;;;;;4978740;28;20429;-61
2021/11/23 03:47:49;;;;;;;11.70;6.90;;;2.60;99.90;;;;;;4981674;28;20611;-60
2021/11/23 03:50:17;;;;;;;9.37;6.57;;;2.60;99.90;;;;;;4980454;28;21190;-57
2021/11/23 03:52:43;;;;;;;8.63;6.50;;;2.60;99.90;;;;;;4980348;28;20545;-62
2021/11/23 03:55:13;;;;;;;11.63;7.13;;;2.60;99.90;;;;;;4979517;28;20431;-60
2021/11/23 03:57:39;;;;;;;8.80;6.80;;;2.60;99.90;;;;;;4983329;28;20472;-60
2021/11/23 04:00:07;;;;;;;10.70;7.37;;;2.60;99.90;;;;;;4980697;28;20937;-60
2021/11/23 04:02:32;;;;;;;9.23;6.70;;;2.60;99.90;;;;;;4977956;28;20201;-61
2021/11/23 04:04:58;;;;;;;10.50;7.50;;;2.60;99.90;;;;;;4978543;28;20436;-61
2021/11/23 04:07:24;;;;;;;10.77;7.40;;;2.70;99.90;;;;;;4979662;28;20227;-61
2021/11/23 04:09:49;;;;;;;9.87;7.30;;;2.70;99.90;;;;;;4988632;28;20177;-60
2021/11/23 04:12:15;;;;;;;9.13;6.10;;;2.70;99.90;;;;;;4983850;28;20758;-60
2021/11/23 04:14:42;;;;;;;10.43;6.40;;;2.70;99.90;;;;;;4978772;28;20170;-60
2021/11/23 04:17:08;;;;;;;11.00;7.00;;;2.70;99.90;;;;;;4987991;28;20181;-60
2021/11/23 04:19:35;;;;;;;13.57;7.40;;;2.70;99.90;;;;;;4978163;28;20484;-59
2021/11/23 04:22:02;;;;;;;8.93;6.57;;;2.70;99.90;;;;;;4971212;28;20468;-61
2021/11/23 04:24:28;;;;;;;9.67;6.40;;;2.70;99.90;;;;;;4980922;28;20424;-61
2021/11/23 04:26:53;;;;;;;10.17;7.33;;;2.70;99.90;;;;;;5007105;28;20493;-61
2021/11/23 04:29:20;;;;;;;9.17;7.10;;;2.60;99.90;;;;;;4988872;28;20173;-60
2021/11/23 04:31:45;;;;;;;11.50;7.60;;;2.60;99.90;;;;;;4991795;28;20482;-60
2021/11/23 04:34:11;;;;;;;9.57;6.70;;;2.60;99.90;;;;;;4991543;28;20456;-60
2021/11/23 04:36:37;;;;;;;9.57;6.63;;;2.60;99.90;;;;;;4983403;28;20188;-61
2021/11/23 04:39:03;;;;;;;11.10;7.10;;;2.60;99.90;;;;;;4995830;28;20179;-60
2021/11/23 04:41:29;;;;;;;9.93;6.70;;;2.60;99.90;;;;;;4999812;28;20535;-61
2021/11/23 04:43:55;;;;;;;9.40;6.47;;;2.60;99.90;;;;;;4993288;28;20443;-62
2021/11/23 04:46:21;;;;;;;15.17;6.67;;;2.60;99.90;;;;;;4984884;28;20460;-61
2021/11/23 04:48:47;;;;;;;9.53;7.07;;;2.60;99.90;;;;;;4991904;28;20441;-59
2021/11/23 04:51:13;;;;;;;11.23;7.10;;;2.60;99.90;;;;;;4997275;28;20993;-60
2021/11/23 04:53:39;;;;;;;10.33;7.10;;;2.60;99.90;;;;;;4991082;28;20187;-59
2021/11/23 04:56:05;;;;;;;10.73;7.70;;;2.60;99.90;;;;;;4981717;28;20435;-61
2021/11/23 04:58:37;;;;;;;9.93;6.87;;;2.70;99.90;;;;;;4979693;28;20185;-60
2021/11/23 05:01:03;;;;;;;11.70;7.93;;;2.70;99.90;;;;;;4978555;28;20255;-59
2021/11/23 05:03:28;;;;;;;11.80;7.27;;;2.80;99.90;;;;;;4982608;28;20945;-61
2021/11/23 05:05:54;;;;;;;8.63;6.77;;;2.80;99.90;;;;;;4986327;28;20444;-61
2021/11/23 05:08:19;;;;;;;9.43;6.33;;;2.80;99.90;;;;;;4980991;28;20176;-62
2021/11/23 05:10:45;;;;;;;10.60;6.90;;;2.80;99.90;;;;;;4984585;28;20600;-61
2021/11/23 05:13:11;;;;;;;11.50;6.93;;;2.80;99.90;;;;;;4974532;28;20170;-61
2021/11/23 05:15:37;;;;;;;11.80;7.17;;;2.80;99.90;;;;;;4988489;28;20228;-61
2021/11/23 05:18:03;;;;;;;12.10;7.00;;;2.70;99.90;;;;;;4988389;28;20255;-62
2021/11/23 05:20:28;;;;;;;10.97;7.33;;;2.70;99.90;;;;;;4985980;28;20186;-61
2021/11/23 05:22:54;;;;;;;12.33;8.00;;;2.70;99.90;;;;;;4988452;28;20205;-61
2021/11/23 05:25:20;;;;;;;9.50;6.47;;;2.60;99.90;;;;;;4981905;28;20787;-61
2021/11/23 05:27:45;;;;;;;10.20;6.97;;;2.60;99.90;;;;;;4979241;28;20205;-61
2021/11/23 05:30:12;;;;;;;9.00;6.20;;;2.60;99.90;;;;;;4988150;28;20208;-61
2021/11/23 05:32:39;;;;;;;9.60;6.50;;;2.60;99.90;;;;;;4986559;28;20250;-61
2021/11/23 05:35:05;;;;;;;11.00;7.43;;;2.50;99.90;;;;;;4983064;28;20428;-59
2021/11/23 05:37:31;;;;;;;12.40;7.07;;;2.50;99.90;;;;;;4976107;28;20491;-60
2021/11/23 05:39:57;;;;;;;13.97;6.83;;;2.50;99.90;;;;;;4981342;28;20810;-60
2021/11/23 05:42:22;;;;;;;9.97;6.50;;;2.50;99.90;;;;;;4979606;28;20241;-61
2021/11/23 05:44:48;;;;;;;11.73;6.40;;;2.50;99.90;;;;;;4977548;28;20189;-61
2021/11/23 05:47:13;;;;;;;14.90;8.10;;;2.50;99.90;;;;;;4976640;28;20205;-60
2021/11/23 05:49:39;;;;;;;10.77;7.27;;;2.50;99.90;;;;;;4982783;28;20173;-59
2021/11/23 05:52:05;;;;;;;16.73;8.00;;;2.40;99.90;;;;;;4984458;28;20204;-59
2021/11/23 05:54:31;;;;;;;12.93;7.20;;;2.40;99.90;;;;;;4984877;28;20189;-56
2021/11/23 05:56:56;;;;;;;11.53;7.70;;;2.40;99.90;;;;;;4983612;28;20292;-58
2021/11/23 05:59:22;;;;;;;9.70;7.10;;;2.40;99.90;;;;;;4978904;28;20186;-59
2021/11/23 06:01:48;;;;;;;10.20;7.23;;;2.40;99.90;;;;;;4977240;28;20717;-61
2021/11/23 06:04:14;;;;;;;9.33;6.50;;;2.40;99.90;;;;;;4980211;28;20219;-61
2021/11/23 06:06:39;;;;;;;11.03;7.50;;;2.40;99.90;;;;;;4986735;28;20585;-60
2021/11/23 06:09:06;;;;;;;12.07;7.70;;;2.40;99.90;;;;;;4991495;28;20600;-60
2021/11/23 06:11:32;;;;;;;11.70;7.20;;;2.40;99.90;;;;;;4982525;28;20433;-60
2021/11/23 06:13:58;;;;;;;9.20;6.90;;;2.40;99.90;;;;;;4979628;28;20520;-61
2021/11/23 06:16:24;;;;;;;11.50;6.43;;;2.30;99.90;;;;;;4974990;28;20911;-60
2021/11/23 06:18:49;;;;;;;10.63;7.20;;;2.30;99.90;;;;;;4976128;28;20177;-61
2021/11/23 06:21:15;;;;;;;11.47;7.40;;;2.30;99.90;;;;;;4977313;28;20198;-58
2021/11/23 06:23:41;;;;;;;13.10;7.30;;;2.30;99.90;;;;;;4972434;28;20196;-61
2021/11/23 06:26:08;;;;;;;14.33;7.50;;;2.30;99.90;;;;;;4974859;28;20483;-61
2021/11/23 06:28:34;;;;;;;11.27;7.40;;;2.30;99.90;;;;;;4991015;28;20169;-61
2021/11/23 06:31:00;;;;;;;11.93;7.60;;;2.30;99.90;;;;;;4990723;28;20474;-61
2021/11/23 06:33:25;;;;;;;15.00;7.50;;;2.30;99.90;;;;;;4991739;28;20442;-60
2021/11/23 06:35:51;;;;;;;11.20;7.03;;;2.30;99.90;;;;;;4982088;28;20439;-61
2021/11/23 06:38:17;;;;;;;13.20;7.70;;;2.30;99.90;;;;;;4991320;28;20172;-61
2021/11/23 06:40:43;;;;;;;11.93;7.60;;;2.30;99.90;;;;;;4986704;28;20173;-59
2021/11/23 06:43:10;;;;;;;10.50;7.30;;;2.20;99.90;;;;;;4973362;28;20640;-60
2021/11/23 06:45:37;;;;;;;10.70;7.33;;;2.30;99.90;;;;;;4986522;28;20268;-61
2021/11/23 06:48:04;;;;;;;12.27;7.87;;;2.20;99.90;;;;;;4988093;28;20481;-60
2021/11/23 06:50:32;;;;;;;14.17;7.70;;;2.20;99.90;;;;;;4990968;28;20438;-60
2021/11/23 06:53:03;;;;;;;17.83;8.47;;;2.20;99.90;;;;;;4992364;28;20428;-61
2021/11/23 06:55:30;;;;;;;15.37;8.00;;;2.20;99.90;;;;;;4979791;28;20511;-61
2021/11/23 06:57:56;;;;;;;11.83;7.50;;;2.20;99.90;;;;;;4982451;28;20511;-61
2021/11/23 07:00:21;;;;;;;13.40;7.47;;;2.20;99.90;;;;;;4971003;28;20905;-62
2021/11/23 07:02:48;;;;;;;12.27;7.87;;;2.10;99.90;;;;;;4989063;28;20447;-61
2021/11/23 07:05:14;;;;;;;17.13;9.60;;;2.10;99.90;;;;;;4985841;28;20242;-61
2021/11/23 07:07:39;;;;;;;10.20;7.83;;;2.10;99.90;;;;;;4971283;28;20448;-60
2021/11/23 07:10:10;;;;;;;11.57;7.30;;;2.10;99.90;;;;;;4971033;28;20420;-60
2021/11/23 07:12:36;;;;;;;13.67;8.50;;;2.00;99.90;;;;;;4977846;28;20720;-61
2021/11/23 07:15:02;;;;;;;16.30;9.20;;;2.10;99.90;;;;;;4971290;28;20472;-60
2021/11/23 07:17:28;;;;;;;14.10;7.50;;;2.10;99.90;;;;;;4971569;28;20786;-60
2021/11/23 07:19:54;;;;;;;10.90;7.33;;;2.10;99.90;;;;;;4978535;28;20435;-60
2021/11/23 07:22:20;;;;;;;12.17;7.87;;;2.10;99.90;;;;;;4971210;28;20190;-60
2021/11/23 07:24:45;;;;;;;14.00;8.30;;;2.10;99.90;;;;;;4969726;28;20609;-60
2021/11/23 07:27:11;;;;;;;15.80;7.57;;;2.10;99.90;;;;;;4985235;28;20493;-60
2021/11/23 07:29:37;;;;;;;15.50;7.97;;;2.10;99.90;;;;;;4986600;28;20528;-61
2021/11/23 07:32:03;;;;;;;10.40;7.40;;;2.10;99.90;;;;;;4988595;28;20694;-61
2021/11/23 07:34:29;;;;;;;14.00;7.57;;;2.10;99.90;;;;;;4979712;28;20173;-60
2021/11/23 07:36:54;;;;;;;11.33;6.77;;;2.10;99.90;;;;;;4973583;28;21183;-60
2021/11/23 07:39:20;;;;;;;13.37;8.33;;;2.10;99.90;;;;;;4988680;28;20211;-60
2021/11/23 07:41:46;;;;;;;13.13;8.03;;;2.10;99.90;;;;;;4978947;28;20222;-61
2021/11/23 07:44:12;;;;;;;14.10;7.73;;;2.20;99.90;;;;;;4990690;28;20215;-60
2021/11/23 07:46:37;;;;;;;13.93;7.50;;;2.20;99.90;;;;;;4989051;28;20207;-61
2021/11/23 07:49:04;;;;;;;13.63;7.47;;;2.20;99.90;;;;;;4988707;28;20208;-60
2021/11/23 07:51:30;;;;;;;13.30;7.60;;;2.20;99.90;;;;;;4988227;28;20283;-61
2021/11/23 07:53:56;;;;;;;14.63;8.10;;;2.20;99.90;;;;;;4989034;28;20948;-60
2021/11/23 07:56:21;;;;;;;12.30;7.43;;;2.20;99.90;;;;;;4985436;28;20438;-60
2021/11/23 07:58:47;;;;;;;13.30;7.93;;;2.20;99.90;;;;;;4989713;28;20183;-60
2021/11/23 08:01:13;;;;;;;16.53;9.03;;;2.30;99.90;;;;;;4989491;28;20225;-61
2021/11/23 08:03:40;;;;;;;10.03;6.93;;;2.30;99.90;;;;;;4988610;28;20433;-60
2021/11/23 08:06:07;;;;;;;11.57;7.60;;;2.30;99.90;;;;;;4986825;28;20207;-62
2021/11/23 08:08:34;;;;;;;9.23;6.50;;;2.40;99.90;;;;;;4980962;28;20954;-61
2021/11/23 08:11:00;;;;;;;9.60;6.97;;;2.40;99.90;;;;;;4986861;28;20474;-60
2021/11/23 08:13:27;;;;;;;12.73;6.87;;;2.50;99.90;;;;;;4988290;28;20412;-60
2021/11/23 08:15:53;;;;;;;12.20;7.77;;;2.40;99.90;;;;;;4990076;28;20539;-61
2021/11/23 08:18:19;;;;;;;9.53;6.90;;;2.40;99.90;;;;;;4986526;28;20861;-60
2021/11/23 08:20:45;;;;;;;12.20;7.87;;;2.40;99.90;;;;;;4987624;28;20914;-60
2021/11/23 08:23:11;;;;;;;13.50;7.20;;;2.40;99.90;;;;;;4984229;28;20416;-62
2021/11/23 08:25:40;;;;;;;11.57;7.67;;;2.50;99.90;;;;;;4989217;28;20408;-60
2021/11/23 08:28:06;;;;;;;11.60;7.47;;;2.50;99.90;;;;;;4983157;28;20456;-58
2021/11/23 08:30:33;;;;;;;10.43;7.50;;;2.50;99.90;;;;;;4987471;28;20950;-60
2021/11/23 08:32:59;;;;;;;13.10;7.40;;;2.60;99.90;;;;;;4990320;28;20495;-63
2021/11/23 08:35:24;;;;;;;9.87;7.10;;;2.60;99.90;;;;;;4989163;28;20487;-59
2021/11/23 08:37:50;;;;;;;12.50;7.20;;;2.60;99.90;;;;;;4982924;28;20181;-60
2021/11/23 08:40:17;;;;;;;9.70;7.00;;;2.70;99.90;;;;;;4988831;28;20256;-60
2021/11/23 08:42:43;;;;;;;16.10;8.30;;;2.70;99.90;;;;;;4982201;28;21026;-60
2021/11/23 08:45:10;;;;;;;13.10;8.07;;;2.80;99.90;;;;;;4988966;28;20459;-60
2021/11/23 08:47:36;;;;;;;9.83;6.87;;;2.80;99.90;;;;;;4987364;28;20974;-60
2021/11/23 08:50:07;;;;;;;10.90;6.80;;;2.90;99.90;;;;;;4988957;28;20410;-61
2021/11/23 08:52:34;;;;;;;9.67;6.63;;;2.90;99.90;;;;;;4980751;28;20501;-60
2021/11/23 08:55:00;;;;;;;9.77;6.83;;;2.90;99.90;;;;;;4970536;28;20564;-59
2021/11/23 08:57:26;;;;;;;9.13;6.47;;;2.90;99.90;;;;;;4974899;28;21027;-60
2021/11/23 08:59:58;;;;;;;11.80;6.80;;;3.00;99.90;;;;;;4987923;28;20509;-60
2021/11/23 09:02:23;;;;;;;9.77;6.47;;;3.00;99.90;;;;;;4975892;28;20224;-59
2021/11/23 09:04:49;;;;;;;10.10;7.40;;;3.00;99.90;;;;;;4970334;28;20927;-62
2021/11/23 09:07:17;;;;;;;8.73;5.57;;;3.10;99.90;;;;;;4970625;28;20205;-59
2021/11/23 09:09:44;;;;;;;9.27;6.10;;;3.10;99.90;;;;;;4980611;28;20489;-61
2021/11/23 09:12:13;;;;;;;10.60;6.10;;;3.10;99.90;;;;;;4985150;28;20458;-61
2021/11/23 09:14:40;;;;;;;11.10;5.87;;;3.00;99.90;;;;;;4977119;28;20416;-60
2021/11/23 09:17:06;;;;;;;8.20;5.97;;;3.10;99.90;;;;;;4988900;28;21002;-61
2021/11/23 09:19:33;;;;;;;14.13;6.30;;;3.10;99.90;;;;;;4975584;28;20427;-60
2021/11/23 09:21:59;;;;;;;8.90;5.53;;;3.10;99.90;;;;;;4980409;28;20452;-61
2021/11/23 09:24:25;;;;;;;9.10;5.83;;;3.10;99.90;;;;;;4983776;28;20427;-59
2021/11/23 09:26:51;;;;;;;7.97;4.80;;;3.10;99.90;;;;;;4989599;28;20543;-61
2021/11/23 09:29:21;;;;;;;8.47;5.00;;;3.20;99.90;;;;;;4990140;28;20416;-60
2021/11/23 09:31:48;;;;;;;9.10;6.13;;;3.20;99.90;;;;;;4992250;28;20419;-61
2021/11/23 09:34:15;;;;;;;7.80;5.30;;;3.30;99.90;;;;;;4985799;28;20416;-61
2021/11/23 09:36:42;;;;;;;11.33;6.13;;;3.40;99.90;;;;;;4971903;28;20523;-60
2021/11/23 09:39:09;;;;;;;8.33;5.47;;;3.40;99.90;;;;;;4991762;28;20435;-61
2021/11/23 09:41:37;;;;;;;9.03;5.90;;;3.50;99.90;;;;;;4984313;28;20438;-60
2021/11/23 09:44:05;;;;;;;6.67;5.50;;;3.50;99.90;;;;;;4972940;28;20509;-62
2021/11/23 09:46:32;;;;;;;5.30;4.17;;;3.60;99.90;;;;;;4988866;28;20542;-60
2021/11/23 09:48:58;;;;;;;8.83;5.23;;;3.70;99.90;;;;;;4992688;28;20422;-61
2021/11/23 09:51:25;;;;;;;14.43;6.80;;;3.80;99.90;;;;;;4985670;28;20959;-60
2021/11/23 09:53:53;;;;;;;8.77;4.70;;;3.90;99.90;;;;;;4984642;28;20331;-61
2021/11/23 09:56:19;;;;;;;7.30;5.40;;;3.90;99.90;;;;;;4985354;28;20428;-58
2021/11/23 09:58:45;;;;;;;7.70;5.33;;;4.00;99.00;;;;;;4991857;28;20407;-62
2021/11/23 10:01:12;;;;;;;10.80;6.10;;;3.90;98.60;;;;;;4990863;28;20860;-59
2021/11/23 10:03:39;;;;;;;8.23;6.00;;;3.90;98.90;;;;;;4991800;28;21005;-61
2021/11/23 10:06:12;;;;;;;8.53;5.60;;;3.80;98.90;;;;;;4985870;28;20428;-60
2021/11/23 10:08:40;;;;;;;9.87;5.10;;;3.80;99.30;;;;;;4988807;28;21103;-60
2021/11/23 10:11:07;;;;;;;9.80;5.67;;;3.80;99.50;;;;;;4990030;28;20453;-61
2021/11/23 10:13:49;;;;;;;10.77;5.50;;;3.70;99.60;;;;;;4991406;28;20424;-60
2021/11/23 10:16:17;;;;;;;8.70;5.47;;;3.70;99.50;;;;;;4971646;28;20483;-60
2021/11/23 10:18:43;;;;;;;6.63;5.20;;;3.70;99.50;;;;;;4972522;28;20448;-61
2021/11/23 10:21:12;;;;;;;5.80;5.00;;;3.70;99.30;;;;;;4978509;28;20447;-61
2021/11/23 10:23:47;;;;;;;9.00;5.10;;;3.70;99.20;;;;;;4991606;28;20899;-59
2021/11/23 10:26:16;;;;;;;10.20;5.40;;;3.60;99.30;;;;;;4984704;28;20434;-61
2021/11/23 10:28:54;;;;;;;8.00;5.20;;;3.60;99.40;;;;;;4973330;28;20827;-61
2021/11/23 10:31:21;;;;;;;7.70;5.20;;;3.70;99.30;;;;;;4982015;28;20448;-61
2021/11/23 10:33:56;;;;;;;8.30;5.13;;;3.80;99.30;;;;;;4989847;28;20419;-61
2021/11/23 10:36:22;;;;;;;8.67;5.00;;;4.00;98.90;;;;;;4991648;28;20763;-61
2021/11/23 10:38:50;;;;;;;7.90;5.13;;;4.10;97.90;;;;;;4986712;28;20429;-60
2021/11/23 10:41:16;;;;;;;8.67;6.10;;;4.30;97.80;;;;;;4971777;28;20719;-60
2021/11/23 10:43:43;;;;;;;6.47;4.80;;;4.40;97.50;;;;;;4988336;28;20570;-61
2021/11/23 10:46:21;;;;;;;8.10;5.73;;;4.50;96.30;;;;;;4989571;28;20181;-61
2021/11/23 10:48:55;;;;;;;6.80;5.50;;;4.70;96.20;;;;;;4989042;28;20451;-61
2021/11/23 10:51:22;;;;;;;6.70;5.27;;;4.80;95.70;;;;;;4973437;28;20575;-61
2021/11/23 10:53:49;;;;;;;7.90;4.83;;;5.00;94.90;;;;;;4971016;28;20451;-61
2021/11/23 10:56:19;;;;;;;9.07;5.60;;;5.10;94.20;;;;;;4981672;28;20536;-59
2021/11/23 10:58:47;;;;;;;10.23;5.40;;;5.30;93.50;;;;;;4983697;28;20792;-60
2021/11/23 11:01:15;;;;;;;9.67;5.33;;;5.40;93.10;;;;;;4976521;28;20473;-60
2021/11/23 11:03:42;;;;;;;10.83;4.80;;;5.60;92.00;;;;;;4989458;28;20437;-60
2021/11/23 11:06:09;;;;;;;6.93;5.00;;;5.80;91.50;;;;;;4987927;28;20412;-60
2021/11/23 11:08:46;;;;;;;8.30;5.77;;;5.90;90.20;;;;;;4984179;28;20444;-60
2021/11/23 11:11:17;;;;;;;7.77;5.97;;;6.10;88.50;;;;;;4981335;28;20454;-60
2021/11/23 11:13:48;;;;;;;7.37;5.17;;;6.30;85.30;;;;;;4989505;28;20428;-60
2021/11/23 11:16:16;;;;;;;7.40;5.47;;;6.30;82.40;;;;;;4988186;28;20750;-60
2021/11/23 11:19:04;;;;;;;8.17;5.73;;;6.50;82.70;;;;;;4987466;28;20790;-60
2021/11/23 11:21:29;;;;;;;6.47;4.80;;;6.60;79.10;;;;;;4975963;28;21030;-61
2021/11/23 11:24:22;;;;;;;6.80;5.70;;;6.70;77.70;;;;;;4984109;28;20515;-61
2021/11/23 11:26:53;;;;;;;6.80;4.97;;;6.70;78.10;;;;;;4990704;28;20267;-59
2021/11/23 11:29:30;;;;;;;7.03;6.10;;;6.80;77.20;;;;;;4985103;28;20396;-60
2021/11/23 11:31:59;;;;;;;7.37;5.20;;;6.80;75.60;;;;;;4989180;28;20591;-61
2021/11/23 11:34:36;;;;;;;8.03;5.00;;;6.80;72.70;;;;;;4989919;28;20416;-61
2021/11/23 11:37:19;;;;;;;5.60;4.70;;;6.70;72.00;;;;;;4974964;28;20499;-60
2021/11/23 11:39:54;;;;;;;6.70;5.23;;;6.40;73.20;;;;;;4974018;28;20424;-58
2021/11/23 11:42:20;;;;;;;8.03;5.50;;;6.10;75.00;;;;;;4993172;28;20428;-61
2021/11/23 11:44:50;;;;;;;12.53;5.67;;;5.90;78.10;;;;;;4990609;28;20411;-60
2021/11/23 11:47:20;;;;;;;9.17;6.03;;;5.70;81.70;;;;;;4988586;28;20691;-60
2021/11/23 11:49:51;;;;;;;7.73;6.03;;;5.50;84.90;;;;;;4982684;28;20436;-60
2021/11/23 11:52:18;;;;;;;12.50;7.60;;;5.20;87.90;;;;;;4971531;28;20524;-61
2021/11/23 11:54:49;;;;;;;10.93;6.03;;;5.00;90.60;;;;;;4970791;28;20672;-59
2021/11/23 11:57:30;;;;;;;9.93;5.73;;;4.90;91.80;;;;;;4971242;28;20775;-60
2021/11/23 12:00:21;;;;;;;8.20;5.50;;;4.80;92.80;;;;;;4981382;28;20438;-59
2021/11/23 12:02:47;;;;;;;8.17;5.60;;;4.70;93.10;;;;;;4979564;28;20936;-60
2021/11/23 12:05:14;;;;;;;6.57;5.10;;;4.60;93.30;;;;;;4987415;28;20591;-60
2021/11/23 12:07:43;;;;;;;7.80;5.30;;;4.40;94.00;;;;;;4985091;28;20460;-60
2021/11/23 12:10:24;;;;;;;9.03;5.40;;;4.40;94.30;;;;;;4984117;28;21081;-58
2021/11/23 12:12:56;;;;;;;7.17;5.37;;;4.30;94.40;;;;;;4975777;28;20448;-60
2021/11/23 12:16:02;;;;;;;9.50;6.70;;;4.20;94.60;;;;;;4974202;28;20447;-60
2021/11/23 12:18:50;;;;;;;12.53;5.60;;;4.20;94.80;;;;;;4973263;28;20527;-61
2021/11/23 12:21:17;;;;;;;6.30;5.13;;;4.20;94.40;;;;;;4972957;28;20455;-61
2021/11/23 12:23:49;;;;;;;9.60;5.70;;;4.20;94.10;;;;;;4980110;28;20459;-62
2021/11/23 12:26:17;;;;;;;7.00;5.23;;;4.30;94.20;;;;;;4978290;28;20926;-62
2021/11/23 12:28:53;;;;;;;6.13;4.60;;;4.30;94.50;;;;;;4979035;28;20576;-61
2021/11/23 12:31:20;;;;;;;8.67;5.97;;;4.30;94.50;;;;;;4982771;28;20455;-61
2021/11/23 12:33:59;;;;;;;5.80;4.33;;;4.40;94.20;;;;;;4977984;28;20441;-61
2021/11/23 12:36:27;;;;;;;7.60;4.83;;;4.40;93.40;;;;;;4982978;28;20415;-61
2021/11/23 12:38:53;;;;;;;10.53;5.00;;;4.50;93.20;;;;;;4979632;28;20422;-60
2021/11/23 12:41:22;;;;;;;10.63;4.93;;;4.60;92.90;;;;;;4977308;28;20449;-61
2021/11/23 12:43:49;;;;;;;6.60;5.23;;;4.60;91.80;;;;;;4985350;28;20762;-61
2021/11/23 12:46:21;;;;;;;5.60;4.13;;;4.70;91.50;;;;;;4987102;28;20454;-61
2021/11/23 12:48:50;;;;;;;5.50;4.40;;;4.70;90.80;;;;;;4986724;28;20856;-61
2021/11/23 12:51:25;;;;;;;6.47;4.60;;;4.70;90.30;;;;;;4989055;28;20451;-61
2021/11/23 12:53:59;;;;;;;6.43;4.37;;;4.70;89.40;;;;;;4986901;28;20431;-60